sensor_id;sensor_type;location;lat;lon;timestamp;pressure;altitude;pressure_sealevel;temperature
23992;BMP280;12205;50.600;4.608;2022-08-02T00:02:00;100589.78;;;20.06
23992;BMP280;12205;50.600;4.608;2022-08-02T00:04:29;100577.06;;;20.03
23992;BMP280;12205;50.600;4.608;2022-08-02T00:06:56;100568.59;;;20.01
23992;BMP280;12205;50.600;4.608;2022-08-02T00:09:25;100564.66;;;20.02
23992;BMP280;12205;50.600;4.608;2022-08-02T00:11:52;100560.84;;;20.00
23992;BMP280;12205;50.600;4.608;2022-08-02T00:14:19;100560.91;;;19.96
23992;BMP280;12205;50.600;4.608;2022-08-02T00:16:46;100558.69;;;19.91
23992;BMP280;12205;50.600;4.608;2022-08-02T00:19:14;100561.16;;;19.82
23992;BMP280;12205;50.600;4.608;2022-08-02T00:21:41;100560.44;;;19.78
23992;BMP280;12205;50.600;4.608;2022-08-02T00:24:09;100558.91;;;19.77
23992;BMP280;12205;50.600;4.608;2022-08-02T00:26:37;100557.38;;;19.76
23992;BMP280;12205;50.600;4.608;2022-08-02T00:29:05;100557.38;;;19.76
23992;BMP280;12205;50.600;4.608;2022-08-02T00:31:32;100565.19;;;19.74
23992;BMP280;12205;50.600;4.608;2022-08-02T00:33:59;100554.78;;;19.69
23992;BMP280;12205;50.600;4.608;2022-08-02T00:36:27;100537.69;;;19.48
23992;BMP280;12205;50.600;4.608;2022-08-02T00:38:54;100551.84;;;19.59
23992;BMP280;12205;50.600;4.608;2022-08-02T00:41:21;100552.22;;;19.58
23992;BMP280;12205;50.600;4.608;2022-08-02T00:43:51;100555.38;;;19.56
23992;BMP280;12205;50.600;4.608;2022-08-02T00:46:19;100546.94;;;19.51
23992;BMP280;12205;50.600;4.608;2022-08-02T00:48:47;100554.31;;;19.50
23992;BMP280;12205;50.600;4.608;2022-08-02T00:51:16;100551.59;;;19.50
23992;BMP280;12205;50.600;4.608;2022-08-02T00:53:43;100548.53;;;19.48
23992;BMP280;12205;50.600;4.608;2022-08-02T00:56:10;100547.34;;;19.49
23992;BMP280;12205;50.600;4.608;2022-08-02T00:58:37;100544.31;;;19.47
23992;BMP280;12205;50.600;4.608;2022-08-02T01:01:06;100545.81;;;19.48
23992;BMP280;12205;50.600;4.608;2022-08-02T01:03:33;100545.47;;;19.46
23992;BMP280;12205;50.600;4.608;2022-08-02T01:06:00;100547.81;;;19.44
23992;BMP280;12205;50.600;4.608;2022-08-02T01:08:27;100546.31;;;19.43
23992;BMP280;12205;50.600;4.608;2022-08-02T01:10:55;100543.22;;;19.41
23992;BMP280;12205;50.600;4.608;2022-08-02T01:13:24;100540.19;;;19.39
23992;BMP280;12205;50.600;4.608;2022-08-02T01:16:00;100535.22;;;19.34
23992;BMP280;12205;50.600;4.608;2022-08-02T01:18:37;100536.34;;;19.36
23992;BMP280;12205;50.600;4.608;2022-08-02T01:21:38;100538.75;;;19.31
23992;BMP280;12205;50.600;4.608;2022-08-02T01:27:32;100532.25;;;19.24
23992;BMP280;12205;50.600;4.608;2022-08-02T01:30:03;100536.91;;;19.24
23992;BMP280;12205;50.600;4.608;2022-08-02T01:32:38;100539.66;;;19.20
23992;BMP280;12205;50.600;4.608;2022-08-02T01:35:13;100532.69;;;19.19
23992;BMP280;12205;50.600;4.608;2022-08-02T01:37:48;100541.63;;;19.16
23992;BMP280;12205;50.600;4.608;2022-08-02T01:40:29;100537.41;;;19.15
23992;BMP280;12205;50.600;4.608;2022-08-02T01:42:58;100539.38;;;19.15
23992;BMP280;12205;50.600;4.608;2022-08-02T01:45:33;100545.19;;;19.13
23992;BMP280;12205;50.600;4.608;2022-08-02T01:48:03;100544.44;;;19.13
23992;BMP280;12205;50.600;4.608;2022-08-02T01:50:35;100544.47;;;19.09
23992;BMP280;12205;50.600;4.608;2022-08-02T01:53:07;100546.81;;;19.07
23992;BMP280;12205;50.600;4.608;2022-08-02T01:55:42;100547.22;;;19.05
23992;BMP280;12205;50.600;4.608;2022-08-02T01:58:11;100546.81;;;19.07
23992;BMP280;12205;50.600;4.608;2022-08-02T02:00:42;100542.91;;;19.08
23992;BMP280;12205;50.600;4.608;2022-08-02T02:03:14;100546.88;;;19.03
23992;BMP280;12205;50.600;4.608;2022-08-02T02:05:43;100539.88;;;19.06
23992;BMP280;12205;50.600;4.608;2022-08-02T02:08:15;100524.03;;;19.04
23992;BMP280;12205;50.600;4.608;2022-08-02T02:10:44;100541.75;;;19.09
23992;BMP280;12205;50.600;4.608;2022-08-02T02:13:16;100532.88;;;19.09
23992;BMP280;12205;50.600;4.608;2022-08-02T02:15:48;100527.38;;;19.12
23992;BMP280;12205;50.600;4.608;2022-08-02T02:18:22;100530.53;;;19.11
23992;BMP280;12205;50.600;4.608;2022-08-02T02:20:50;100523.91;;;19.12
23992;BMP280;12205;50.600;4.608;2022-08-02T02:23:18;100511.13;;;19.12
23992;BMP280;12205;50.600;4.608;2022-08-02T02:25:46;100506.06;;;19.14
23992;BMP280;12205;50.600;4.608;2022-08-02T02:28:20;100492.56;;;19.11
23992;BMP280;12205;50.600;4.608;2022-08-02T02:30:54;100489.41;;;19.16
23992;BMP280;12205;50.600;4.608;2022-08-02T02:33:25;100460.22;;;19.00
23992;BMP280;12205;50.600;4.608;2022-08-02T02:35:53;100487.44;;;19.16
23992;BMP280;12205;50.600;4.608;2022-08-02T02:38:21;100486.28;;;19.17
23992;BMP280;12205;50.600;4.608;2022-08-02T02:40:50;100475.47;;;19.14
23992;BMP280;12205;50.600;4.608;2022-08-02T02:43:19;100475.13;;;19.12
23992;BMP280;12205;50.600;4.608;2022-08-02T02:45:49;100479.88;;;19.04
23992;BMP280;12205;50.600;4.608;2022-08-02T02:48:18;100482.59;;;19.04
23992;BMP280;12205;50.600;4.608;2022-08-02T02:50:47;100480.72;;;19.01
23992;BMP280;12205;50.600;4.608;2022-08-02T02:53:17;100475.75;;;18.96
23992;BMP280;12205;50.600;4.608;2022-08-02T02:55:46;100483.66;;;18.86
23992;BMP280;12205;50.600;4.608;2022-08-02T02:58:14;100495.25;;;18.83
23992;BMP280;12205;50.600;4.608;2022-08-02T03:00:41;100483.00;;;18.75
23992;BMP280;12205;50.600;4.608;2022-08-02T03:03:29;100477.53;;;18.79
23992;BMP280;12205;50.600;4.608;2022-08-02T03:05:57;100473.25;;;18.81
23992;BMP280;12205;50.600;4.608;2022-08-02T03:08:24;100466.69;;;18.79
23992;BMP280;12205;50.600;4.608;2022-08-02T03:10:52;100472.88;;;18.79
23992;BMP280;12205;50.600;4.608;2022-08-02T03:13:20;100461.28;;;18.79
23992;BMP280;12205;50.600;4.608;2022-08-02T03:15:51;100465.13;;;18.81
23992;BMP280;12205;50.600;4.608;2022-08-02T03:18:33;100450.50;;;18.75
23992;BMP280;12205;50.600;4.608;2022-08-02T03:21:03;100474.31;;;18.88
23992;BMP280;12205;50.600;4.608;2022-08-02T03:23:30;100479.84;;;18.80
23992;BMP280;12205;50.600;4.608;2022-08-02T03:25:58;100471.38;;;18.78
23992;BMP280;12205;50.600;4.608;2022-08-02T03:28:26;100477.50;;;18.82
23992;BMP280;12205;50.600;4.608;2022-08-02T03:30:53;100480.22;;;18.82
23992;BMP280;12205;50.600;4.608;2022-08-02T03:33:23;100474.31;;;18.88
23992;BMP280;12205;50.600;4.608;2022-08-02T03:35:54;100470.44;;;18.89
23992;BMP280;12205;50.600;4.608;2022-08-02T03:38:24;100466.56;;;18.90
23992;BMP280;12205;50.600;4.608;2022-08-02T03:40:53;100466.47;;;18.97
23992;BMP280;12205;50.600;4.608;2022-08-02T03:43:24;100465.63;;;19.00
23992;BMP280;12205;50.600;4.608;2022-08-02T03:45:52;100455.50;;;19.04
23992;BMP280;12205;50.600;4.608;2022-08-02T03:48:20;100462.06;;;19.06
23992;BMP280;12205;50.600;4.608;2022-08-02T03:50:47;100465.88;;;19.09
23992;BMP280;12205;50.600;4.608;2022-08-02T03:53:17;100467.75;;;19.12
23992;BMP280;12205;50.600;4.608;2022-08-02T03:55:44;100467.75;;;19.12
23992;BMP280;12205;50.600;4.608;2022-08-02T03:58:17;100456.09;;;19.15
23992;BMP280;12205;50.600;4.608;2022-08-02T04:00:45;100458.09;;;19.11
23992;BMP280;12205;50.600;4.608;2022-08-02T04:03:12;100464.09;;;18.99
23992;BMP280;12205;50.600;4.608;2022-08-02T04:05:40;100453.72;;;18.94
23992;BMP280;12205;50.600;4.608;2022-08-02T04:08:07;100460.34;;;18.93
23992;BMP280;12205;50.600;4.608;2022-08-02T04:10:35;100451.84;;;18.91
23992;BMP280;12205;50.600;4.608;2022-08-02T04:13:16;100452.56;;;18.95
23992;BMP280;12205;50.600;4.608;2022-08-02T04:15:45;100450.22;;;18.97
23992;BMP280;12205;50.600;4.608;2022-08-02T04:18:16;100446.34;;;18.94
23992;BMP280;12205;50.600;4.608;2022-08-02T04:20:47;100452.47;;;18.98
23992;BMP280;12205;50.600;4.608;2022-08-02T04:23:17;100455.97;;;18.99
23992;BMP280;12205;50.600;4.608;2022-08-02T04:25:46;100450.91;;;19.01
23992;BMP280;12205;50.600;4.608;2022-08-02T04:28:16;100459.41;;;19.03
23992;BMP280;12205;50.600;4.608;2022-08-02T04:30:43;100455.09;;;19.05
23992;BMP280;12205;50.600;4.608;2022-08-02T04:33:12;100446.91;;;19.09
23992;BMP280;12205;50.600;4.608;2022-08-02T04:35:39;100444.59;;;19.08
23992;BMP280;12205;50.600;4.608;2022-08-02T04:38:07;100431.50;;;19.06
23992;BMP280;12205;50.600;4.608;2022-08-02T04:40:35;100426.06;;;19.06
23992;BMP280;12205;50.600;4.608;2022-08-02T04:43:03;100428.69;;;19.10
23992;BMP280;12205;50.600;4.608;2022-08-02T04:45:31;100420.16;;;19.11
23992;BMP280;12205;50.600;4.608;2022-08-02T04:47:59;100413.53;;;19.16
23992;BMP280;12205;50.600;4.608;2022-08-02T04:50:26;100407.25;;;19.19
23992;BMP280;12205;50.600;4.608;2022-08-02T04:52:53;100404.16;;;19.20
23992;BMP280;12205;50.600;4.608;2022-08-02T04:55:20;100415.69;;;19.24
23992;BMP280;12205;50.600;4.608;2022-08-02T04:57:53;100415.56;;;19.32
23992;BMP280;12205;50.600;4.608;2022-08-02T05:00:25;100413.22;;;19.34
23992;BMP280;12205;50.600;4.608;2022-08-02T05:02:54;100420.16;;;19.35
23992;BMP280;12205;50.600;4.608;2022-08-02T05:05:22;100416.63;;;19.38
23992;BMP280;12205;50.600;4.608;2022-08-02T05:07:49;100410.84;;;19.36
23992;BMP280;12205;50.600;4.608;2022-08-02T05:10:16;100408.50;;;19.38
23992;BMP280;12205;50.600;4.608;2022-08-02T05:12:44;100410.38;;;19.41
23992;BMP280;12205;50.600;4.608;2022-08-02T05:15:13;100416.03;;;19.50
23992;BMP280;12205;50.600;4.608;2022-08-02T05:17:45;100415.41;;;19.62
23992;BMP280;12205;50.600;4.608;2022-08-02T05:20:13;100419.16;;;19.69
23992;BMP280;12205;50.600;4.608;2022-08-02T05:22:41;100420.97;;;19.75
23992;BMP280;12205;50.600;4.608;2022-08-02T05:25:09;100423.25;;;19.77
23992;BMP280;12205;50.600;4.608;2022-08-02T05:27:36;100436.34;;;19.82
23992;BMP280;12205;50.600;4.608;2022-08-02T05:30:05;100430.16;;;19.81
23992;BMP280;12205;50.600;4.608;2022-08-02T05:32:33;100438.69;;;19.80
23992;BMP280;12205;50.600;4.608;2022-08-02T05:35:03;100440.31;;;19.77
23992;BMP280;12205;50.600;4.608;2022-08-02T05:37:30;100440.22;;;19.81
23992;BMP280;12205;50.600;4.608;2022-08-02T05:39:57;100444.03;;;19.87
23992;BMP280;12205;50.600;4.608;2022-08-02T05:42:25;100443.81;;;19.98
23992;BMP280;12205;50.600;4.608;2022-08-02T05:44:52;100450.53;;;20.10
23992;BMP280;12205;50.600;4.608;2022-08-02T05:47:20;100459.22;;;20.21
23992;BMP280;12205;50.600;4.608;2022-08-02T05:49:49;100460.97;;;20.31
23992;BMP280;12205;50.600;4.608;2022-08-02T05:52:19;100467.09;;;20.35
23992;BMP280;12205;50.600;4.608;2022-08-02T05:54:54;100482.47;;;20.42
23992;BMP280;12205;50.600;4.608;2022-08-02T05:57:36;100480.03;;;20.48
23992;BMP280;12205;50.600;4.608;2022-08-02T06:00:10;100474.41;;;20.55
23992;BMP280;12205;50.600;4.608;2022-08-02T06:03:00;100474.41;;;20.55
23992;BMP280;12205;50.600;4.608;2022-08-02T06:05:33;100487.00;;;20.65
23992;BMP280;12205;50.600;4.608;2022-08-02T06:08:03;100484.63;;;20.67
23992;BMP280;12205;50.600;4.608;2022-08-02T06:10:36;100481.75;;;20.74
23992;BMP280;12205;50.600;4.608;2022-08-02T06:13:09;100489.47;;;20.76
23992;BMP280;12205;50.600;4.608;2022-08-02T06:15:38;100483.44;;;20.68
23992;BMP280;12205;50.600;4.608;2022-08-02T06:18:07;100486.66;;;20.63
23992;BMP280;12205;50.600;4.608;2022-08-02T06:20:35;100479.38;;;20.60
23992;BMP280;12205;50.600;4.608;2022-08-02T06:23:06;100486.25;;;20.64
23992;BMP280;12205;50.600;4.608;2022-08-02T06:25:36;100485.13;;;20.62
23992;BMP280;12205;50.600;4.608;2022-08-02T06:28:05;100487.34;;;20.67
23992;BMP280;12205;50.600;4.608;2022-08-02T06:30:33;100491.09;;;20.73
23992;BMP280;12205;50.600;4.608;2022-08-02T06:33:00;100489.81;;;20.61
23992;BMP280;12205;50.600;4.608;2022-08-02T06:35:36;100495.25;;;20.61
23992;BMP280;12205;50.600;4.608;2022-08-02T06:38:08;100488.34;;;20.57
23992;BMP280;12205;50.600;4.608;2022-08-02T06:40:45;100488.69;;;20.59
23992;BMP280;12205;50.600;4.608;2022-08-02T06:43:22;100488.53;;;20.66
23992;BMP280;12205;50.600;4.608;2022-08-02T06:45:51;100492.63;;;20.74
23992;BMP280;12205;50.600;4.608;2022-08-02T06:48:19;100496.38;;;20.80
23992;BMP280;12205;50.600;4.608;2022-08-02T06:50:46;100494.00;;;20.82
23992;BMP280;12205;50.600;4.608;2022-08-02T06:53:14;100490.78;;;20.88
23992;BMP280;12205;50.600;4.608;2022-08-02T06:55:42;100505.47;;;20.90
23992;BMP280;12205;50.600;4.608;2022-08-02T06:58:09;100499.63;;;20.92
23992;BMP280;12205;50.600;4.608;2022-08-02T07:00:36;100495.19;;;20.98
23992;BMP280;12205;50.600;4.608;2022-08-02T07:03:04;100503.72;;;21.00
23992;BMP280;12205;50.600;4.608;2022-08-02T07:05:32;100516.25;;;21.10
23992;BMP280;12205;50.600;4.608;2022-08-02T07:08:00;100521.44;;;21.04
23992;BMP280;12205;50.600;4.608;2022-08-02T07:10:29;100507.59;;;20.99
23992;BMP280;12205;50.600;4.608;2022-08-02T07:12:56;100506.06;;;20.98
23992;BMP280;12205;50.600;4.608;2022-08-02T07:15:23;100516.81;;;21.05
23992;BMP280;12205;50.600;4.608;2022-08-02T07:17:50;100535.47;;;21.03
23992;BMP280;12205;50.600;4.608;2022-08-02T07:20:17;100528.41;;;21.05
23992;BMP280;12205;50.600;4.608;2022-08-02T07:22:45;100530.09;;;21.16
23992;BMP280;12205;50.600;4.608;2022-08-02T07:25:12;100535.13;;;21.17
23992;BMP280;12205;50.600;4.608;2022-08-02T07:27:41;100536.50;;;21.25
23992;BMP280;12205;50.600;4.608;2022-08-02T07:30:09;100534.78;;;21.32
23992;BMP280;12205;50.600;4.608;2022-08-02T07:32:37;100540.16;;;21.35
23992;BMP280;12205;50.600;4.608;2022-08-02T07:35:06;100526.94;;;21.50
23992;BMP280;12205;50.600;4.608;2022-08-02T07:37:35;100529.13;;;21.55
23992;BMP280;12205;50.600;4.608;2022-08-02T07:40:05;100527.09;;;21.59
23992;BMP280;12205;50.600;4.608;2022-08-02T07:42:33;100525.97;;;21.73
23992;BMP280;12205;50.600;4.608;2022-08-02T07:45:01;100532.75;;;21.81
23992;BMP280;12205;50.600;4.608;2022-08-02T07:47:29;100533.09;;;21.83
23992;BMP280;12205;50.600;4.608;2022-08-02T07:49:56;100534.75;;;21.94
23992;BMP280;12205;50.600;4.608;2022-08-02T07:52:23;100533.03;;;22.00
23992;BMP280;12205;50.600;4.608;2022-08-02T07:54:50;100534.25;;;22.12
23992;BMP280;12205;50.600;4.608;2022-08-02T07:57:17;100519.22;;;22.20
23992;BMP280;12205;50.600;4.608;2022-08-02T07:59:45;100538.22;;;22.36
23992;BMP280;12205;50.600;4.608;2022-08-02T08:02:14;100531.91;;;22.39
23992;BMP280;12205;50.600;4.608;2022-08-02T08:04:41;100531.59;;;22.37
23992;BMP280;12205;50.600;4.608;2022-08-02T08:07:09;100530.06;;;22.49
23992;BMP280;12205;50.600;4.608;2022-08-02T08:09:36;100526.91;;;22.51
23992;BMP280;12205;50.600;4.608;2022-08-02T08:12:07;100524.94;;;22.64
23992;BMP280;12205;50.600;4.608;2022-08-02T08:14:34;100524.94;;;22.64
23992;BMP280;12205;50.600;4.608;2022-08-02T08:17:02;100520.81;;;22.72
23992;BMP280;12205;50.600;4.608;2022-08-02T08:19:31;100521.22;;;22.83
23992;BMP280;12205;50.600;4.608;2022-08-02T08:21:58;100516.97;;;22.95
23992;BMP280;12205;50.600;4.608;2022-08-02T08:24:25;100527.78;;;22.99
23992;BMP280;12205;50.600;4.608;2022-08-02T08:26:52;100519.34;;;23.06
23992;BMP280;12205;50.600;4.608;2022-08-02T08:29:20;100523.69;;;23.16
23992;BMP280;12205;50.600;4.608;2022-08-02T08:31:48;100526.81;;;23.27
23992;BMP280;12205;50.600;4.608;2022-08-02T08:34:15;100528.44;;;23.38
23992;BMP280;12205;50.600;4.608;2022-08-02T08:36:44;100522.72;;;23.45
23992;BMP280;12205;50.600;4.608;2022-08-02T08:39:11;100529.16;;;23.51
23992;BMP280;12205;50.600;4.608;2022-08-02T08:41:42;100498.53;;;23.34
23992;BMP280;12205;50.600;4.608;2022-08-02T08:44:09;100513.41;;;23.55
23992;BMP280;12205;50.600;4.608;2022-08-02T08:46:37;100518.28;;;23.60
23992;BMP280;12205;50.600;4.608;2022-08-02T08:49:09;100520.28;;;23.60
23992;BMP280;12205;50.600;4.608;2022-08-02T08:51:42;100516.78;;;23.59
23992;BMP280;12205;50.600;4.608;2022-08-02T08:54:15;100525.47;;;23.67
23992;BMP280;12205;50.600;4.608;2022-08-02T08:56:43;100517.22;;;23.80
23992;BMP280;12205;50.600;4.608;2022-08-02T08:59:11;100507.00;;;23.93
23992;BMP280;12205;50.600;4.608;2022-08-02T09:01:38;100526.19;;;24.02
23992;BMP280;12205;50.600;4.608;2022-08-02T09:04:06;100518.03;;;24.11
23992;BMP280;12205;50.600;4.608;2022-08-02T09:06:33;100503.75;;;24.07
23992;BMP280;12205;50.600;4.608;2022-08-02T09:09:02;100514.59;;;24.20
23992;BMP280;12205;50.600;4.608;2022-08-02T09:11:29;100519.94;;;24.33
23992;BMP280;12205;50.600;4.608;2022-08-02T09:14:00;100521.97;;;24.42
23992;BMP280;12205;50.600;4.608;2022-08-02T09:16:33;100527.16;;;24.49
23992;BMP280;12205;50.600;4.608;2022-08-02T09:19:15;100529.28;;;24.54
23992;BMP280;12205;50.600;4.608;2022-08-02T09:21:44;100522.31;;;24.53
23992;BMP280;12205;50.600;4.608;2022-08-02T09:24:17;100528.53;;;24.53
23992;BMP280;12205;50.600;4.608;2022-08-02T09:26:46;100510.97;;;24.64
23992;BMP280;12205;50.600;4.608;2022-08-02T09:29:15;100526.28;;;24.70
23992;BMP280;12205;50.600;4.608;2022-08-02T09:31:43;100515.81;;;24.60
23992;BMP280;12205;50.600;4.608;2022-08-02T09:34:10;100526.16;;;24.74
23992;BMP280;12205;50.600;4.608;2022-08-02T09:36:41;100514.94;;;24.81
23992;BMP280;12205;50.600;4.608;2022-08-02T09:39:10;100513.13;;;24.87
23992;BMP280;12205;50.600;4.608;2022-08-02T09:41:41;100509.47;;;24.90
23992;BMP280;12205;50.600;4.608;2022-08-02T09:44:10;100498.13;;;25.10
23992;BMP280;12205;50.600;4.608;2022-08-02T09:46:40;100523.03;;;25.12
23992;BMP280;12205;50.600;4.608;2022-08-02T09:49:10;100505.06;;;25.11
23992;BMP280;12205;50.600;4.608;2022-08-02T09:51:48;100516.50;;;25.28
23992;BMP280;12205;50.600;4.608;2022-08-02T09:54:19;100513.47;;;25.45
23992;BMP280;12205;50.600;4.608;2022-08-02T09:56:51;100509.78;;;25.48
23992;BMP280;12205;50.600;4.608;2022-08-02T09:59:20;100507.03;;;25.57
23992;BMP280;12205;50.600;4.608;2022-08-02T10:01:50;100510.53;;;25.67
23992;BMP280;12205;50.600;4.608;2022-08-02T10:04:21;100521.91;;;25.74
23992;BMP280;12205;50.600;4.608;2022-08-02T10:06:49;100526.78;;;25.70
23992;BMP280;12205;50.600;4.608;2022-08-02T10:09:18;100520.97;;;25.77
23992;BMP280;12205;50.600;4.608;2022-08-02T10:11:47;100520.34;;;25.92
23992;BMP280;12205;50.600;4.608;2022-08-02T10:14:15;100523.97;;;25.98
23992;BMP280;12205;50.600;4.608;2022-08-02T10:16:43;100511.78;;;26.08
23992;BMP280;12205;50.600;4.608;2022-08-02T10:19:10;100510.50;;;26.18
23992;BMP280;12205;50.600;4.608;2022-08-02T10:21:44;100511.69;;;26.27
23992;BMP280;12205;50.600;4.608;2022-08-02T10:24:16;100506.88;;;26.46
23992;BMP280;12205;50.600;4.608;2022-08-02T10:26:47;100511.25;;;26.52
23992;BMP280;12205;50.600;4.608;2022-08-02T10:29:18;100498.72;;;26.60
23992;BMP280;12205;50.600;4.608;2022-08-02T10:31:55;100503.59;;;26.80
23992;BMP280;12205;50.600;4.608;2022-08-02T10:34:44;100516.66;;;26.85
23992;BMP280;12205;50.600;4.608;2022-08-02T10:37:13;100502.00;;;26.89
23992;BMP280;12205;50.600;4.608;2022-08-02T10:39:44;100514.63;;;26.95
23992;BMP280;12205;50.600;4.608;2022-08-02T10:42:43;100507.41;;;26.83
23992;BMP280;12205;50.600;4.608;2022-08-02T10:45:14;100503.28;;;27.02
23992;BMP280;12205;50.600;4.608;2022-08-02T10:48:03;100498.72;;;26.99
23992;BMP280;12205;50.600;4.608;2022-08-02T10:50:52;100504.91;;;27.09
23992;BMP280;12205;50.600;4.608;2022-08-02T10:53:31;100494.69;;;27.10
23992;BMP280;12205;50.600;4.608;2022-08-02T10:56:00;100491.31;;;27.44
23992;BMP280;12205;50.600;4.608;2022-08-02T10:58:32;100497.84;;;27.62
23992;BMP280;12205;50.600;4.608;2022-08-02T11:01:07;100505.78;;;27.60
23992;BMP280;12205;50.600;4.608;2022-08-02T11:03:57;100496.09;;;27.79
23992;BMP280;12205;50.600;4.608;2022-08-02T11:06:25;100496.66;;;27.83
23992;BMP280;12205;50.600;4.608;2022-08-02T11:09:27;100498.16;;;27.99
23992;BMP280;12205;50.600;4.608;2022-08-02T11:12:04;100501.44;;;28.18
23992;BMP280;12205;50.600;4.608;2022-08-02T11:14:35;100506.28;;;28.08
23992;BMP280;12205;50.600;4.608;2022-08-02T11:17:20;100505.00;;;27.89
23992;BMP280;12205;50.600;4.608;2022-08-02T11:20:18;100498.63;;;27.98
23992;BMP280;12205;50.600;4.608;2022-08-02T11:22:48;100488.56;;;27.74
23992;BMP280;12205;50.600;4.608;2022-08-02T11:25:32;100492.41;;;27.82
23992;BMP280;12205;50.600;4.608;2022-08-02T11:28:10;100492.28;;;27.91
23992;BMP280;12205;50.600;4.608;2022-08-02T11:30:42;100485.91;;;28.00
23992;BMP280;12205;50.600;4.608;2022-08-02T11:33:09;100484.88;;;28.12
23992;BMP280;12205;50.600;4.608;2022-08-02T11:35:38;100486.72;;;28.21
23992;BMP280;12205;50.600;4.608;2022-08-02T11:38:18;100487.25;;;28.25
23992;BMP280;12205;50.600;4.608;2022-08-02T11:40:47;100475.28;;;28.28
23992;BMP280;12205;50.600;4.608;2022-08-02T11:43:17;100485.50;;;28.43
23992;BMP280;12205;50.600;4.608;2022-08-02T11:45:48;100487.28;;;28.46
23992;BMP280;12205;50.600;4.608;2022-08-02T11:48:33;100492.78;;;28.46
23992;BMP280;12205;50.600;4.608;2022-08-02T11:51:06;100486.38;;;28.54
23992;BMP280;12205;50.600;4.608;2022-08-02T11:53:44;100489.34;;;28.71
23992;BMP280;12205;50.600;4.608;2022-08-02T11:56:14;100492.69;;;28.81
23992;BMP280;12205;50.600;4.608;2022-08-02T11:58:59;100490.75;;;29.13
23992;BMP280;12205;50.600;4.608;2022-08-02T12:01:29;100487.13;;;29.28
23992;BMP280;12205;50.600;4.608;2022-08-02T12:03:57;100475.25;;;29.48
23992;BMP280;12205;50.600;4.608;2022-08-02T12:06:26;100477.09;;;29.56
23992;BMP280;12205;50.600;4.608;2022-08-02T12:09:05;100478.28;;;29.87
23992;BMP280;12205;50.600;4.608;2022-08-02T12:11:34;100478.81;;;29.91
23992;BMP280;12205;50.600;4.608;2022-08-02T12:14:03;100481.94;;;30.16
23992;BMP280;12205;50.600;4.608;2022-08-02T12:16:36;100491.00;;;30.33
23992;BMP280;12205;50.600;4.608;2022-08-02T12:19:23;100482.56;;;30.53
23992;BMP280;12205;50.600;4.608;2022-08-02T12:22:09;100489.13;;;30.62
23992;BMP280;12205;50.600;4.608;2022-08-02T12:24:38;100481.09;;;30.52
23992;BMP280;12205;50.600;4.608;2022-08-02T12:27:07;100471.09;;;30.83
23992;BMP280;12205;50.600;4.608;2022-08-02T12:29:38;100481.16;;;31.26
23992;BMP280;12205;50.600;4.608;2022-08-02T12:32:23;100477.31;;;31.74
23992;BMP280;12205;50.600;4.608;2022-08-02T12:35:05;100483.34;;;32.30
23992;BMP280;12205;50.600;4.608;2022-08-02T12:37:34;100466.25;;;32.32
23992;BMP280;12205;50.600;4.608;2022-08-02T12:40:18;100472.41;;;32.49
23992;BMP280;12205;50.600;4.608;2022-08-02T12:42:46;100483.88;;;32.70
23992;BMP280;12205;50.600;4.608;2022-08-02T12:45:13;100467.94;;;32.77
23992;BMP280;12205;50.600;4.608;2022-08-02T12:47:46;100470.41;;;32.86
23992;BMP280;12205;50.600;4.608;2022-08-02T12:50:18;100467.28;;;32.95
23992;BMP280;12205;50.600;4.608;2022-08-02T12:52:46;100403.00;;;32.00
23992;BMP280;12205;50.600;4.608;2022-08-02T12:55:16;100470.94;;;32.48
23992;BMP280;12205;50.600;4.608;2022-08-02T12:57:55;100473.47;;;32.41
23992;BMP280;12205;50.600;4.608;2022-08-02T13:00:26;100465.78;;;32.22
23992;BMP280;12205;50.600;4.608;2022-08-02T13:02:56;100460.97;;;32.28
23992;BMP280;12205;50.600;4.608;2022-08-02T13:05:25;100463.47;;;32.38
23992;BMP280;12205;50.600;4.608;2022-08-02T13:07:54;100464.63;;;32.01
23992;BMP280;12205;50.600;4.608;2022-08-02T13:10:24;100453.13;;;32.33
23992;BMP280;12205;50.600;4.608;2022-08-02T13:12:52;100449.84;;;32.75
23992;BMP280;12205;50.600;4.608;2022-08-02T13:15:20;100454.97;;;32.60
23992;BMP280;12205;50.600;4.608;2022-08-02T13:17:48;100449.19;;;32.94
23992;BMP280;12205;50.600;4.608;2022-08-02T13:20:16;100455.84;;;32.80
23992;BMP280;12205;50.600;4.608;2022-08-02T13:22:44;100451.91;;;32.69
23992;BMP280;12205;50.600;4.608;2022-08-02T13:25:11;100444.47;;;33.13
23992;BMP280;12205;50.600;4.608;2022-08-02T13:27:38;100441.09;;;33.45
23992;BMP280;12205;50.600;4.608;2022-08-02T13:30:07;100440.28;;;34.13
23992;BMP280;12205;50.600;4.608;2022-08-02T13:32:34;100425.03;;;34.51
23992;BMP280;12205;50.600;4.608;2022-08-02T13:35:01;100436.47;;;35.07
23992;BMP280;12205;50.600;4.608;2022-08-02T13:37:32;100432.13;;;35.45
23992;BMP280;12205;50.600;4.608;2022-08-02T13:39:59;100425.00;;;35.10
23992;BMP280;12205;50.600;4.608;2022-08-02T13:42:26;100424.44;;;35.52
23992;BMP280;12205;50.600;4.608;2022-08-02T13:44:53;100424.75;;;35.96
23992;BMP280;12205;50.600;4.608;2022-08-02T13:47:20;100436.16;;;36.26
23992;BMP280;12205;50.600;4.608;2022-08-02T13:49:48;100397.28;;;36.41
23992;BMP280;12205;50.600;4.608;2022-08-02T13:52:15;100416.28;;;37.08
23992;BMP280;12205;50.600;4.608;2022-08-02T13:54:44;100419.50;;;36.83
23992;BMP280;12205;50.600;4.608;2022-08-02T13:57:11;100412.50;;;36.98
23992;BMP280;12205;50.600;4.608;2022-08-02T13:59:38;100409.22;;;36.71
23992;BMP280;12205;50.600;4.608;2022-08-02T14:02:06;100410.75;;;36.51
23992;BMP280;12205;50.600;4.608;2022-08-02T14:04:33;100412.25;;;36.80
23992;BMP280;12205;50.600;4.608;2022-08-02T14:07:01;100413.53;;;36.79
23992;BMP280;12205;50.600;4.608;2022-08-02T14:09:28;100408.53;;;36.85
23992;BMP280;12205;50.600;4.608;2022-08-02T14:11:58;100402.13;;;36.98
23992;BMP280;12205;50.600;4.608;2022-08-02T14:14:26;100397.00;;;36.81
23992;BMP280;12205;50.600;4.608;2022-08-02T14:16:53;100395.44;;;36.65
23992;BMP280;12205;50.600;4.608;2022-08-02T14:19:20;100405.56;;;36.83